createdAt,value
2017-10-20T00:06:28.603Z,14.4
2017-10-20T00:16:42.699Z,14.4
2017-10-20T00:26:57.607Z,14.3
2017-10-20T00:37:11.457Z,14.3
2017-10-20T00:47:25.522Z,14.3
2017-10-20T00:57:40.449Z,14.3
2017-10-20T01:07:51.936Z,14.3
2017-10-20T01:18:04.729Z,14.4
2017-10-20T01:28:18.899Z,14.5
2017-10-20T01:38:32.736Z,14.6
2017-10-20T01:48:47.031Z,14.7
2017-10-20T01:59:01.684Z,14.8
2017-10-20T02:09:15.912Z,14.8
2017-10-20T02:19:29.903Z,14.9
2017-10-20T02:29:44.213Z,15.0
2017-10-20T02:39:58.259Z,15.1
2017-10-20T02:50:12.568Z,15.1
2017-10-20T03:00:26.852Z,15.1
2017-10-20T03:10:41.219Z,15.1
2017-10-20T03:20:55.399Z,15.0
2017-10-20T03:31:09.983Z,15.0
2017-10-20T03:41:24.018Z,14.9
2017-10-20T03:51:38.295Z,14.9
2017-10-20T04:01:53.796Z,14.9
2017-10-20T04:12:07.809Z,14.9
2017-10-20T04:22:22.068Z,14.8
2017-10-20T04:32:36.480Z,14.8
2017-10-20T04:42:50.834Z,14.7
2017-10-20T04:53:02.606Z,14.7
2017-10-20T05:04:23.917Z,14.6
2017-10-20T05:14:37.480Z,14.6
2017-10-20T05:25:22.341Z,14.6
2017-10-20T05:36:07.454Z,14.6
2017-10-20T05:46:20.954Z,14.5
2017-10-20T05:57:05.825Z,14.5
2017-10-20T06:07:20.777Z,14.5
2017-10-20T06:17:34.200Z,14.4
2017-10-20T06:27:48.797Z,14.4
2017-10-20T06:38:02.718Z,14.3
2017-10-20T06:48:14.009Z,14.2
2017-10-20T06:58:28.040Z,14.2
2017-10-20T07:08:42.254Z,14.1
2017-10-20T07:18:57.250Z,14.1
2017-10-20T07:29:10.774Z,14.0
2017-10-20T07:39:25.666Z,14.0
2017-10-20T07:49:39.150Z,14.1
2017-10-20T07:59:52.609Z,14.1
2017-10-20T08:10:06.928Z,14.3
2017-10-20T08:20:21.079Z,14.4
2017-10-20T08:30:35.212Z,14.5
2017-10-20T08:40:49.228Z,14.6
2017-10-20T08:51:02.807Z,14.6
2017-10-20T09:01:16.898Z,14.6
2017-10-20T09:11:31.111Z,14.7
2017-10-20T09:21:45.390Z,14.7
2017-10-20T09:31:59.600Z,14.8
2017-10-20T09:42:13.829Z,14.8
2017-10-20T09:52:27.945Z,14.9
2017-10-20T10:02:39.265Z,14.9
2017-10-20T10:12:53.520Z,14.9
2017-10-20T10:23:07.679Z,15.1
2017-10-20T10:33:22.020Z,16.2
2017-10-20T10:43:36.115Z,18.4
2017-10-20T10:53:50.280Z,20.0
2017-10-20T11:04:04.568Z,21.1
2017-10-20T11:14:19.289Z,22.5
2017-10-20T11:24:32.907Z,24.0
2017-10-20T11:34:47.431Z,25.0
2017-10-20T11:45:01.449Z,25.8
2017-10-20T11:55:15.808Z,25.9
2017-10-20T12:05:32.950Z,26.1
2017-10-20T12:15:48.206Z,26.0
2017-10-20T12:26:00.014Z,25.4
2017-10-20T12:36:44.487Z,23.3
2017-10-20T12:47:17.113Z,23.2
2017-10-20T12:57:30.796Z,22.4
2017-10-20T13:08:18.507Z,21.1
2017-10-20T13:18:32.914Z,21.1
2017-10-20T13:28:48.156Z,20.4
2017-10-20T13:39:02.863Z,19.7
2017-10-20T13:49:48.071Z,18.6
2017-10-20T14:00:33.949Z,18.1
2017-10-20T14:10:47.954Z,18.1
2017-10-20T14:21:02.022Z,17.7
2017-10-20T14:31:16.645Z,17.2
2017-10-20T14:41:30.733Z,16.8
2017-10-20T14:51:43.055Z,16.5
2017-10-20T15:01:57.074Z,16.3
2017-10-20T15:12:11.421Z,16.1
2017-10-20T15:22:25.568Z,15.9
2017-10-20T15:32:39.639Z,15.7
2017-10-20T15:42:54.558Z,15.5
2017-10-20T15:53:08.376Z,15.2
2017-10-20T16:03:22.507Z,15.0
2017-10-20T16:13:36.693Z,14.8
2017-10-20T16:23:51.205Z,14.7
2017-10-20T16:34:05.261Z,14.5
2017-10-20T16:44:19.298Z,14.4
2017-10-20T16:54:34.318Z,14.2
2017-10-20T17:04:48.781Z,14.1
2017-10-20T17:15:02.777Z,14.0
2017-10-20T17:25:14.147Z,13.9
2017-10-20T17:35:28.572Z,13.7
2017-10-20T17:45:41.244Z,13.6
2017-10-20T17:55:54.896Z,13.4
2017-10-20T18:06:09.037Z,13.3
2017-10-20T18:16:53.938Z,13.0
2017-10-20T18:27:09.584Z,13.0
2017-10-20T18:37:21.467Z,12.9
2017-10-20T18:47:36.068Z,12.8
2017-10-20T18:57:53.999Z,12.8
2017-10-20T19:08:09.216Z,12.7
2017-10-20T19:18:23.706Z,12.7
2017-10-20T19:28:35.979Z,12.6
2017-10-20T19:38:53.239Z,12.6
2017-10-20T19:49:09.670Z,12.6
2017-10-20T19:59:27.188Z,12.6
2017-10-20T20:09:45.654Z,12.6
2017-10-20T20:20:04.389Z,12.6
2017-10-20T20:30:20.328Z,12.6
2017-10-20T20:40:36.545Z,12.6
2017-10-20T20:50:52.624Z,12.6
2017-10-20T21:01:38.339Z,12.7
2017-10-20T21:11:51.403Z,12.7
2017-10-20T21:22:02.854Z,12.7
2017-10-20T21:32:16.827Z,12.6
2017-10-20T21:43:01.647Z,12.6
2017-10-20T21:54:38.002Z,12.6
2017-10-20T22:05:22.870Z,12.5
2017-10-20T22:15:37.240Z,12.5
2017-10-20T22:25:51.359Z,12.4
2017-10-20T22:36:06.437Z,12.3
2017-10-20T22:46:21.315Z,12.2
2017-10-20T22:56:34.985Z,12.1
2017-10-20T23:06:49.196Z,12.0
2017-10-20T23:17:00.570Z,11.9
2017-10-20T23:27:15.971Z,11.7
2017-10-20T23:37:29.826Z,11.6
2017-10-20T23:47:45.049Z,11.5
2017-10-20T23:57:59.391Z,11.4
